Time;durP1;ratioP1;P1;durP2;ratioP2;P2;SDS_P1;SDS_P2;PMS_P1;PMS_P2;Temp;Humidity;BMP_temperature;BMP_pressure;BME280_temperature;BME280_humidity;BME280_pressure;Samples;Min_cycle;Max_cycle;Signal;HPM_P1;HPM_P2
2023/03/14 00:00:52;;;;;;;;;;;;;;;8.39;100.00;94928.19;5031259;28;19947;-77
2023/03/14 00:03:18;;;;;;;;;;;;;;;8.40;100.00;94924.53;5030632;28;20377;-79
2023/03/14 00:05:44;;;;;;;;;;;;;;;8.40;100.00;94921.91;5031146;28;19958;-77
2023/03/14 00:08:10;;;;;;;;;;;;;;;8.40;100.00;94933.16;5030786;28;20401;-77
2023/03/14 00:10:36;;;;;;;;;;;;;;;8.45;100.00;94924.63;5030829;28;19953;-77
2023/03/14 00:13:02;;;;;;;;;;;;;;;8.44;100.00;94909.97;5031663;28;20005;-78
2023/03/14 00:15:28;;;;;;;;;;;;;;;8.43;100.00;94897.97;5031058;28;19965;-77
2023/03/14 00:17:54;;;;;;;;;;;;;;;8.42;100.00;94898.97;5030908;28;19947;-77
2023/03/14 00:20:20;;;;;;;;;;;;;;;8.44;100.00;94899.53;5031122;28;19950;-77
2023/03/14 00:22:45;;;;;;;;;;;;;;;8.45;100.00;94893.28;5030733;28;19959;-79
2023/03/14 00:25:12;;;;;;;;;;;;;;;8.46;100.00;94887.84;5030506;28;19974;-77
2023/03/14 00:27:38;;;;;;;;;;;;;;;8.51;100.00;94894.94;5030637;28;19949;-78
2023/03/14 00:30:04;;;;;;;;;;;;;;;8.52;100.00;94897.31;5030092;28;19994;-78
2023/03/14 00:32:31;;;;;;;;;;;;;;;8.57;100.00;94903.59;5030805;28;19946;-78
2023/03/14 00:34:56;;;;;;;;;;;;;;;8.59;100.00;94904.16;5030760;28;19963;-78
2023/03/14 00:37:22;;;;;;;;;;;;;;;8.58;100.00;94905.97;5030487;28;19948;-78
2023/03/14 00:39:48;;;;;;;;;;;;;;;8.59;100.00;94904.16;5030693;28;19949;-78
2023/03/14 00:42:14;;;;;;;;;;;;;;;8.59;100.00;94902.34;5030305;28;20412;-77
2023/03/14 00:44:40;;;;;;;;;;;;;;;8.59;100.00;94912.00;5030444;28;19991;-77
2023/03/14 00:47:05;;;;;;;;;;;;;;;8.59;100.00;94920.66;5030485;28;19955;-77
2023/03/14 00:49:31;;;;;;;;;;;;;;;8.56;100.00;94918.50;5030456;28;19951;-78
2023/03/14 00:51:57;;;;;;;;;;;;;;;8.52;100.00;94920.81;5030431;28;19962;-77
2023/03/14 00:54:23;;;;;;;;;;;;;;;8.54;100.00;94929.19;5012646;28;19942;-78
2023/03/14 00:56:49;;;;;;;;;;;;;;;8.51;100.00;94942.75;5030239;28;20437;-78
2023/03/14 00:59:15;;;;;;;;;;;;;;;8.52;100.00;94939.13;5030601;28;20402;-78
2023/03/14 01:01:41;;;;;;;;;;;;;;;8.52;100.00;94938.28;5030119;28;19952;-78
2023/03/14 01:04:07;;;;;;;;;;;;;;;8.51;100.00;94936.72;5030445;28;19956;-78
2023/03/14 01:06:33;;;;;;;;;;;;;;;8.53;100.00;94929.44;5030292;28;20432;-78
2023/03/14 01:08:59;;;;;;;;;;;;;;;8.53;100.00;94914.56;5012517;28;19950;-78
2023/03/14 01:11:34;;;;;;;;;;;;;;;8.54;100.00;94923.19;5030111;28;19990;-78
2023/03/14 01:14:00;;;;;;;;;;;;;;;8.53;100.00;94914.56;5030027;28;19953;-78
2023/03/14 01:16:27;;;;;;;;;;;;;;;8.53;100.00;94896.25;5030427;28;19965;-78
2023/03/14 01:18:53;;;;;;;;;;;;;;;8.56;100.00;94899.44;5029882;28;19942;-78
2023/03/14 01:21:21;;;;;;;;;;;;;;;8.54;100.00;94897.03;5030279;28;19958;-78
2023/03/14 01:23:48;;;;;;;;;;;;;;;8.55;100.00;94893.41;5030097;28;19937;-77
2023/03/14 01:26:15;;;;;;;;;;;;;;;8.55;100.00;94893.41;5030606;28;19956;-76
2023/03/14 01:28:40;;;;;;;;;;;;;;;8.53;100.00;94885.03;5029975;28;19950;-76
2023/03/14 01:31:07;;;;;;;;;;;;;;;8.53;100.00;94877.19;5030002;28;19986;-76
2023/03/14 01:33:33;;;;;;;;;;;;;;;8.53;100.00;94869.34;5029772;28;19949;-76
2023/03/14 01:36:02;;;;;;;;;;;;;;;8.52;100.00;94865.16;5029847;28;19960;-76
2023/03/14 01:38:28;;;;;;;;;;;;;;;8.49;100.00;94848.16;5029854;28;20284;-76
2023/03/14 01:40:54;;;;;;;;;;;;;;;8.46;100.00;94840.81;5030312;28;19947;-76
2023/03/14 01:43:20;;;;;;;;;;;;;;;8.44;100.00;94835.03;5033118;28;20330;-77
2023/03/14 01:45:58;;;;;;;;;;;;;;;8.43;100.00;94828.22;5033095;28;19961;-77
2023/03/14 01:48:25;;;;;;;;;;;;;;;8.39;100.00;94821.88;5033003;28;20329;-77
2023/03/14 01:50:51;;;;;;;;;;;;;;;8.37;100.00;94823.94;5033456;28;20394;-77
2023/03/14 01:53:21;;;;;;;;;;;;;;;8.36;100.00;94827.59;5033094;28;19998;-77
2023/03/14 01:55:47;;;;;;;;;;;;;;;8.33;100.00;94822.84;5033120;28;20426;-77
2023/03/14 01:58:14;;;;;;;;;;;;;;;8.31;100.00;94828.31;5032996;28;20358;-77
2023/03/14 02:00:40;;;;;;;;;;;;;;;8.29;100.00;94833.00;5032978;28;19951;-77
2023/03/14 02:03:09;;;;;;;;;;;;;;;8.29;100.00;94834.81;5032743;28;19942;-77
2023/03/14 02:05:37;;;;;;;;;;;;;;;8.29;100.00;94842.63;5032990;28;19972;-76
2023/03/14 02:08:05;;;;;;;;;;;;;;;8.30;100.00;94833.78;5032828;28;19941;-76
2023/03/14 02:10:32;;;;;;;;;;;;;;;8.31;100.00;94836.13;5033138;28;19947;-77
2023/03/14 02:12:59;;;;;;;;;;;;;;;8.32;100.00;94829.13;5032542;28;19966;-77
2023/03/14 02:15:25;;;;;;;;;;;;;;;8.33;100.00;94836.69;5032744;28;19955;-79
2023/03/14 02:17:51;;;;;;;;;;;;;;;8.34;100.00;94819.22;4998643;28;20020;-77
2023/03/14 02:20:32;;;;;;;;;;;;;;;8.33;100.00;94815.78;5032851;28;20029;-78
2023/03/14 02:22:58;;;;;;;;;;;;;;;8.30;100.00;94800.63;5014959;28;19944;-78
2023/03/14 02:25:34;;;;;;;;;;;;;;;8.26;100.00;94807.38;5032869;28;19981;-78
2023/03/14 02:28:00;;;;;;;;;;;;;;;8.26;100.00;94812.59;5032862;28;19944;-77
2023/03/14 02:30:27;;;;;;;;;;;;;;;8.24;100.00;94811.25;5032637;28;19950;-77
2023/03/14 02:33:13;;;;;;;;;;;;;;;8.23;100.00;94818.31;5032593;28;20398;-77
2023/03/14 02:35:41;;;;;;;;;;;;;;;8.23;100.00;94807.88;5032403;28;19960;-77
2023/03/14 02:38:14;;;;;;;;;;;;;;;8.23;100.00;94800.03;5032400;28;19941;-77
2023/03/14 02:40:40;;;;;;;;;;;;;;;8.22;100.00;94813.31;5005322;28;19942;-77
2023/03/14 02:43:06;;;;;;;;;;;;;;;8.20;100.00;94797.88;5032188;28;19949;-76
2023/03/14 02:45:37;;;;;;;;;;;;;;;8.17;100.00;94785.34;5032455;28;20034;-77
2023/03/14 02:48:08;;;;;;;;;;;;;;;8.19;100.00;94787.69;5032242;28;19957;-77
2023/03/14 02:50:34;;;;;;;;;;;;;;;8.19;100.00;94772.81;5032353;28;19943;-77
2023/03/14 02:53:00;;;;;;;;;;;;;;;8.14;100.00;94767.53;5046266;28;20331;-77
2023/03/14 02:55:26;;;;;;;;;;;;;;;8.11;100.00;94755.75;5032665;28;19960;-77
2023/03/14 02:57:53;;;;;;;;;;;;;;;8.10;100.00;94769.03;5032796;28;19951;-77
2023/03/14 03:00:19;;;;;;;;;;;;;;;8.07;100.00;94766.94;5014419;28;20419;-78
2023/03/14 03:02:45;;;;;;;;;;;;;;;8.04;100.00;94770.00;5032154;28;19945;-78
2023/03/14 03:05:11;;;;;;;;;;;;;;;8.02;100.00;94757.22;5031859;28;19990;-78
2023/03/14 03:07:37;;;;;;;;;;;;;;;8.00;100.00;94746.25;5014210;28;19996;-77
2023/03/14 03:10:03;;;;;;;;;;;;;;;7.97;100.00;94731.03;5014192;28;19945;-78
2023/03/14 03:12:29;;;;;;;;;;;;;;;7.93;100.00;94735.16;5031825;28;19952;-78
2023/03/14 03:14:54;;;;;;;;;;;;;;;7.90;100.00;94741.69;5031942;28;19959;-78
2023/03/14 03:17:20;;;;;;;;;;;;;;;7.87;100.00;94736.13;5032184;28;19965;-80
2023/03/14 03:19:46;;;;;;;;;;;;;;;7.84;100.00;94729.59;5031807;28;20404;-78
2023/03/14 03:22:12;;;;;;;;;;;;;;;7.83;100.00;94727.22;5031506;28;19949;-78
2023/03/14 03:24:38;;;;;;;;;;;;;;;7.81;100.00;94721.44;5031864;28;19955;-77
2023/03/14 03:27:03;;;;;;;;;;;;;;;7.77;100.00;94718.56;5013964;28;20320;-77
2023/03/14 03:29:29;;;;;;;;;;;;;;;7.76;100.00;94718.78;5031449;28;19999;-77
2023/03/14 03:31:55;;;;;;;;;;;;;;;7.73;100.00;94709.63;5031484;28;19974;-78
2023/03/14 03:34:21;;;;;;;;;;;;;;;7.71;100.00;94709.88;5014003;28;20319;-77
2023/03/14 03:36:47;;;;;;;;;;;;;;;7.68;100.00;94697.28;5031305;28;20014;-77
2023/03/14 03:39:13;;;;;;;;;;;;;;;7.64;100.00;94698.84;4997577;28;19955;-77
2023/03/14 03:41:39;;;;;;;;;;;;;;;7.64;100.00;94698.84;5031394;28;19954;-77
2023/03/14 03:44:05;;;;;;;;;;;;;;;7.61;100.00;94688.09;5031357;28;19974;-77
2023/03/14 03:46:31;;;;;;;;;;;;;;;7.60;100.00;94678.66;5013859;28;19961;-78
2023/03/14 03:49:00;;;;;;;;;;;;;;;7.57;100.00;94674.72;5031261;28;19958;-77
2023/03/14 03:51:26;;;;;;;;;;;;;;;7.57;100.00;94693.00;5013642;28;19961;-78
2023/03/14 03:53:52;;;;;;;;;;;;;;;7.55;100.00;94674.19;5031393;28;19952;-78
2023/03/14 03:56:18;;;;;;;;;;;;;;;7.54;100.00;94677.84;5031195;28;19963;-78
2023/03/14 03:58:44;;;;;;;;;;;;;;;7.52;100.00;94683.28;5013467;28;19945;-78
2023/03/14 04:01:10;;;;;;;;;;;;;;;7.51;100.00;94681.69;5031149;28;19945;-78
2023/03/14 04:03:38;;;;;;;;;;;;;;;7.52;100.00;94683.28;5030816;28;19953;-76
2023/03/14 04:06:13;;;;;;;;;;;;;;;7.50;100.00;94676.75;5030742;28;19941;-77
2023/03/14 04:08:40;;;;;;;;;;;;;;;7.49;100.00;94681.16;5031019;28;19949;-77
2023/03/14 04:11:06;;;;;;;;;;;;;;;7.47;100.00;94680.59;5013440;28;19947;-78
2023/03/14 04:13:32;;;;;;;;;;;;;;;7.49;100.00;94685.59;5030786;28;19947;-78
2023/03/14 04:15:58;;;;;;;;;;;;;;;7.48;100.00;94690.00;5030590;28;19956;-77
2023/03/14 04:18:24;;;;;;;;;;;;;;;7.48;100.00;94676.19;5032241;28;20001;-78
2023/03/14 04:20:51;;;;;;;;;;;;;;;7.46;100.00;94667.81;5013318;28;19960;-78
2023/03/14 04:23:17;;;;;;;;;;;;;;;7.46;100.00;94673.03;5030686;28;19953;-80
2023/03/14 04:25:42;;;;;;;;;;;;;;;7.44;100.00;94660.22;5013348;28;19950;-78
2023/03/14 04:28:08;;;;;;;;;;;;;;;7.45;100.00;94661.00;5030839;28;19953;-78
2023/03/14 04:30:34;;;;;;;;;;;;;;;7.45;100.00;94663.63;5030610;28;20507;-78
2023/03/14 04:33:00;;;;;;;;;;;;;;;7.44;100.00;94654.25;4996818;28;20310;-78
2023/03/14 04:35:26;;;;;;;;;;;;;;;7.41;100.00;94650.28;5030664;28;19947;-78
2023/03/14 04:37:52;;;;;;;;;;;;;;;7.38;100.00;94645.56;5030599;28;19958;-79
2023/03/14 04:40:18;;;;;;;;;;;;;;;7.37;100.00;94651.81;5030570;28;19949;-78
2023/03/14 04:42:44;;;;;;;;;;;;;;;7.35;100.00;94647.84;5030505;28;19953;-78
2023/03/14 04:45:10;;;;;;;;;;;;;;;7.34;100.00;94639.25;5030890;28;19981;-78
2023/03/14 04:47:37;;;;;;;;;;;;;;;7.34;100.00;94638.47;5030647;28;20033;-78
2023/03/14 04:50:03;;;;;;;;;;;;;;;7.31;100.00;94640.50;5030397;28;19945;-78
2023/03/14 04:52:29;;;;;;;;;;;;;;;7.29;100.00;94626.94;5012970;28;20396;-78
2023/03/14 04:54:55;;;;;;;;;;;;;;;7.28;100.00;94632.38;5030729;28;20038;-78
2023/03/14 04:57:20;;;;;;;;;;;;;;;7.24;100.00;94621.63;5012944;28;19969;-78
2023/03/14 04:59:46;;;;;;;;;;;;;;;7.21;100.00;94614.31;5030308;28;20288;-78
2023/03/14 05:02:12;;;;;;;;;;;;;;;7.19;100.00;94605.16;5012636;28;20021;-77
2023/03/14 05:04:38;;;;;;;;;;;;;;;7.18;100.00;94614.81;4996576;28;19959;-78
2023/03/14 05:07:04;;;;;;;;;;;;;;;7.15;100.00;94604.84;5029890;28;19942;-78
2023/03/14 05:09:30;;;;;;;;;;;;;;;7.14;100.00;94586.84;5030380;28;19993;-78
2023/03/14 05:11:56;;;;;;;;;;;;;;;7.15;100.00;94584.00;5030236;28;20418;-77
2023/03/14 05:14:21;;;;;;;;;;;;;;;7.15;100.00;94584.00;5012514;28;19992;-77
2023/03/14 05:16:47;;;;;;;;;;;;;;;7.16;100.00;94576.97;5031591;28;19967;-78
2023/03/14 05:19:13;;;;;;;;;;;;;;;7.18;100.00;94582.72;5033677;28;19962;-77
2023/03/14 05:21:39;;;;;;;;;;;;;;;7.19;100.00;94579.88;5033623;28;19948;-78
2023/03/14 05:24:05;;;;;;;;;;;;;;;7.22;100.00;94576.00;5033730;28;19948;-77
2023/03/14 05:26:31;;;;;;;;;;;;;;;7.25;100.00;94568.47;5015897;28;20002;-78
2023/03/14 05:28:57;;;;;;;;;;;;;;;7.27;100.00;94569.03;5033375;28;19942;-77
2023/03/14 05:31:22;;;;;;;;;;;;;;;7.29;100.00;94572.19;5033449;28;19954;-78
2023/03/14 05:33:48;;;;;;;;;;;;;;;7.30;100.00;94567.75;5015909;28;19949;-78
2023/03/14 05:36:14;;;;;;;;;;;;;;;7.30;100.00;94563.31;5034060;28;19965;-78
2023/03/14 05:38:40;;;;;;;;;;;;;;;7.31;100.00;94564.91;5033276;28;19947;-78
2023/03/14 05:41:06;;;;;;;;;;;;;;;7.31;100.00;94559.69;5033323;28;19989;-78
2023/03/14 05:43:32;;;;;;;;;;;;;;;7.32;100.00;94550.03;5033096;28;19993;-78
2023/03/14 05:45:58;;;;;;;;;;;;;;;7.34;100.00;94557.63;5033440;28;19951;-78
2023/03/14 05:48:23;;;;;;;;;;;;;;;7.32;100.00;94557.88;5033137;28;20009;-78
2023/03/14 05:50:54;;;;;;;;;;;;;;;7.32;100.00;94550.81;5033421;28;19953;-78
2023/03/14 05:53:20;;;;;;;;;;;;;;;7.32;100.00;94539.63;5033648;28;19943;-78
2023/03/14 05:55:46;;;;;;;;;;;;;;;7.34;100.00;94542.78;5015199;28;20362;-78
2023/03/14 05:58:11;;;;;;;;;;;;;;;7.35;100.00;94535.72;5015663;28;19959;-78
2023/03/14 06:00:37;;;;;;;;;;;;;;;7.35;100.00;94543.56;5015135;28;19941;-78
2023/03/14 06:03:03;;;;;;;;;;;;;;;7.33;100.00;94538.59;5015337;28;19942;-78
2023/03/14 06:05:29;;;;;;;;;;;;;;;7.37;100.00;94536.28;5033067;28;20035;-78
2023/03/14 06:07:55;;;;;;;;;;;;;;;7.39;100.00;94537.63;5032921;28;19950;-78
2023/03/14 06:10:21;;;;;;;;;;;;;;;7.40;100.00;94551.44;5032984;28;19951;-78
2023/03/14 06:12:46;;;;;;;;;;;;;;;7.40;100.00;94533.97;5015056;28;19997;-78
2023/03/14 06:15:12;;;;;;;;;;;;;;;7.42;100.00;94552.78;5032910;28;19945;-78
2023/03/14 06:17:38;;;;;;;;;;;;;;;7.45;100.00;94546.28;5014891;28;19965;-78
2023/03/14 06:20:04;;;;;;;;;;;;;;;7.47;100.00;94549.44;5032780;28;19949;-78
2023/03/14 06:22:30;;;;;;;;;;;;;;;7.50;100.00;94548.94;5032745;28;19944;-78
2023/03/14 06:24:56;;;;;;;;;;;;;;;7.50;99.64;94539.28;5032746;28;19957;-78
2023/03/14 06:27:22;;;;;;;;;;;;;;;7.53;99.65;94538.78;5032514;28;19996;-79
2023/03/14 06:29:48;;;;;;;;;;;;;;;7.57;100.00;94538.31;5032838;28;20392;-81
2023/03/14 06:32:14;;;;;;;;;;;;;;;7.58;98.22;94517.22;5015149;28;19986;-78
2023/03/14 06:34:40;;;;;;;;;;;;;;;7.62;99.73;94536.56;5032376;28;20010;-78
2023/03/14 06:37:06;;;;;;;;;;;;;;;7.65;99.00;94520.41;5014875;28;20322;-78
2023/03/14 06:39:32;;;;;;;;;;;;;;;7.66;98.58;94516.75;5032938;28;19947;-76
2023/03/14 06:41:58;;;;;;;;;;;;;;;7.67;98.71;94505.28;5014800;28;20399;-77
2023/03/14 06:44:24;;;;;;;;;;;;;;;7.70;97.10;94506.63;5014525;28;19975;-77
2023/03/14 06:46:50;;;;;;;;;;;;;;;7.76;96.96;94521.28;5032133;28;19953;-78
2023/03/14 06:49:16;;;;;;;;;;;;;;;7.82;98.05;94537.78;5032590;28;20003;-78
2023/03/14 06:51:42;;;;;;;;;;;;;;;7.82;96.92;94541.16;5032125;28;19953;-77
2023/03/14 06:54:08;;;;;;;;;;;;;;;7.85;96.65;94529.44;5032021;28;20044;-78
2023/03/14 06:56:34;;;;;;;;;;;;;;;7.87;96.64;94533.41;5031952;28;19970;-77
2023/03/14 06:59:00;;;;;;;;;;;;;;;7.92;97.32;94532.66;5014674;28;20123;-77
2023/03/14 07:01:27;;;;;;;;;;;;;;;7.95;96.42;94529.53;5032372;28;20042;-76
2023/03/14 07:03:54;;;;;;;;;;;;;;;7.97;95.42;94513.63;5031958;28;19938;-78
2023/03/14 07:06:20;;;;;;;;;;;;;;;7.99;96.47;94532.44;5032120;28;19946;-77
2023/03/14 07:08:45;;;;;;;;;;;;;;;8.03;95.54;94529.09;5032158;28;19949;-78
2023/03/14 07:11:12;;;;;;;;;;;;;;;8.06;93.11;94505.13;5031983;28;19953;-77
2023/03/14 07:13:38;;;;;;;;;;;;;;;8.11;94.51;94533.84;5032125;28;20318;-77
2023/03/14 07:16:04;;;;;;;;;;;;;;;8.16;92.48;94508.81;5031602;28;19977;-77
2023/03/14 07:18:30;;;;;;;;;;;;;;;8.27;93.55;94516.50;5031948;28;19947;-77
2023/03/14 07:20:56;;;;;;;;;;;;;;;8.32;92.92;94513.91;5031895;28;20371;-77
2023/03/14 07:23:22;;;;;;;;;;;;;;;8.34;92.66;94524.09;5031891;28;19958;-78
2023/03/14 07:25:48;;;;;;;;;;;;;;;8.39;93.30;94534.56;5014329;28;19966;-78
2023/03/14 07:28:13;;;;;;;;;;;;;;;8.44;93.11;94526.00;5021484;28;19976;-76
2023/03/14 07:30:39;;;;;;;;;;;;;;;8.47;92.06;94530.75;5031612;28;19951;-76
2023/03/14 07:33:05;;;;;;;;;;;;;;;8.52;91.39;94530.78;5031719;28;20384;-77
2023/03/14 07:35:31;;;;;;;;;;;;;;;8.55;89.35;94522.44;5013780;28;20372;-77
2023/03/14 07:37:57;;;;;;;;;;;;;;;8.60;89.28;94527.69;5031421;28;20020;-77
2023/03/14 07:40:23;;;;;;;;;;;;;;;8.73;89.26;94532.50;5013165;28;19950;-77
2023/03/14 07:42:49;;;;;;;;;;;;;;;8.88;89.61;94534.41;5031810;28;19998;-77
2023/03/14 07:45:15;;;;;;;;;;;;;;;9.06;88.87;94535.00;5031425;28;19971;-77
2023/03/14 07:47:41;;;;;;;;;;;;;;;9.15;86.97;94528.22;5031407;28;19967;-77
2023/03/14 07:50:07;;;;;;;;;;;;;;;9.24;88.25;94534.56;5031360;28;19952;-77
2023/03/14 07:52:33;;;;;;;;;;;;;;;9.41;88.08;94544.81;5031174;28;19951;-77
2023/03/14 07:54:59;;;;;;;;;;;;;;;9.49;86.91;94533.84;5031507;28;19950;-76
2023/03/14 07:57:25;;;;;;;;;;;;;;;9.55;86.10;94532.00;5031005;28;19972;-76
2023/03/14 07:59:51;;;;;;;;;;;;;;;9.52;83.21;94509.00;5031526;28;19948;-77
2023/03/14 08:02:17;;;;;;;;;;;;;;;9.52;83.85;94530.69;5031285;28;20033;-76
2023/03/14 08:04:43;;;;;;;;;;;;;;;9.51;85.07;94547.47;5031408;28;19953;-76
2023/03/14 08:07:09;;;;;;;;;;;;;;;9.54;83.63;94522.59;5013413;28;20044;-77
2023/03/14 08:09:35;;;;;;;;;;;;;;;9.60;83.15;94528.63;5031020;28;19948;-77
2023/03/14 08:12:01;;;;;;;;;;;;;;;9.65;82.71;94526.03;5013283;28;19962;-78
2023/03/14 08:14:28;;;;;;;;;;;;;;;9.73;81.40;94520.28;5031102;28;19949;-78
2023/03/14 08:16:54;;;;;;;;;;;;;;;9.79;79.28;94492.28;5031071;28;19964;-77
2023/03/14 08:19:20;;;;;;;;;;;;;;;9.79;80.00;94524.47;5030836;28;19957;-77
2023/03/14 08:21:46;;;;;;;;;;;;;;;9.82;83.44;94546.72;5030684;28;19946;-77
2023/03/14 08:24:12;;;;;;;;;;;;;;;9.82;81.14;94518.72;5013215;28;19956;-77
2023/03/14 08:26:38;;;;;;;;;;;;;;;9.80;82.38;94533.88;5030964;28;19945;-77
2023/03/14 08:29:04;;;;;;;;;;;;;;;9.79;79.48;94510.63;5031284;28;20388;-77
2023/03/14 08:31:30;;;;;;;;;;;;;;;9.83;82.17;94537.84;5030923;28;19971;-77
2023/03/14 08:33:58;;;;;;;;;;;;;;;9.84;82.76;94549.88;5030889;28;20404;-77
2023/03/14 08:36:24;;;;;;;;;;;;;;;9.81;82.71;94556.41;5012798;28;19938;-77
2023/03/14 08:38:50;;;;;;;;;;;;;;;9.74;83.48;94566.34;5030592;28;19999;-76
2023/03/14 08:41:15;;;;;;;;;;;;;;;9.66;85.58;94587.78;5030598;28;20390;-76
2023/03/14 08:43:41;;;;;;;;;;;;;;;9.55;83.93;94566.03;5030483;28;19958;-75
2023/03/14 08:46:07;;;;;;;;;;;;;;;9.45;84.95;94568.59;5030614;28;19978;-75
2023/03/14 08:48:33;;;;;;;;;;;;;;;9.39;85.41;94577.50;5030480;28;20024;-76
2023/03/14 08:51:13;;;;;;;;;;;;;;;9.35;87.44;94593.69;4996834;28;19958;-75
2023/03/14 08:53:39;;;;;;;;;;;;;;;9.31;86.16;94579.56;5035146;28;20308;-76
2023/03/14 08:56:06;;;;;;;;;;;;;;;9.30;86.60;94585.84;5034011;28;19958;-75
2023/03/14 08:58:32;;;;;;;;;;;;;;;9.30;86.69;94585.84;5033907;28;19982;-76
2023/03/14 09:00:58;;;;;;;;;;;;;;;9.28;85.64;94576.66;5034559;28;19952;-76
2023/03/14 09:03:24;;;;;;;;;;;;;;;9.22;85.26;94570.63;5034040;28;19996;-76
2023/03/14 09:05:51;;;;;;;;;;;;;;;9.24;86.59;94584.25;5033841;28;19958;-75
2023/03/14 09:08:17;;;;;;;;;;;;;;;9.28;86.32;94585.31;5033920;28;19954;-75
2023/03/14 09:10:43;;;;;;;;;;;;;;;9.34;86.75;94583.47;5015806;28;19942;-76
2023/03/14 09:13:08;;;;;;;;;;;;;;;9.38;87.02;94596.84;5033841;28;19996;-77
2023/03/14 09:15:34;;;;;;;;;;;;;;;9.42;86.94;94600.53;5033805;28;19994;-77
2023/03/14 09:18:00;;;;;;;;;;;;;;;9.43;85.75;94597.66;5033797;28;19956;-75
2023/03/14 09:20:26;;;;;;;;;;;;;;;9.47;85.00;94585.63;5033517;28;19952;-75
2023/03/14 09:22:52;;;;;;;;;;;;;;;9.50;84.45;94598.19;5033400;28;19942;-77
2023/03/14 09:25:18;;;;;;;;;;;;;;;9.53;84.40;94589.03;5033689;28;20311;-76
2023/03/14 09:27:44;;;;;;;;;;;;;;;9.58;85.01;94599.53;5033594;28;19981;-76
2023/03/14 09:30:10;;;;;;;;;;;;;;;9.58;84.77;94588.28;5033743;28;19985;-76
2023/03/14 09:32:36;;;;;;;;;;;;;;;9.61;84.69;94606.88;5033981;28;19952;-76
2023/03/14 09:35:02;;;;;;;;;;;;;;;9.67;84.31;94599.81;4999438;28;20351;-76
2023/03/14 09:37:28;;;;;;;;;;;;;;;9.65;84.98;94602.69;5033058;28;19956;-75
2023/03/14 09:39:54;;;;;;;;;;;;;;;9.61;84.79;94612.09;5033413;28;20026;-76
2023/03/14 09:42:22;;;;;;;;;;;;;;;9.60;85.75;94612.38;5033202;28;19945;-76
2023/03/14 09:44:54;;;;;;;;;;;;;;;9.61;86.09;94612.09;5032696;28;19975;-75
2023/03/14 09:47:20;;;;;;;;;;;;;;;9.70;86.21;94615.00;5032050;28;19965;-76
2023/03/14 09:49:46;;;;;;;;;;;;;;;9.78;85.84;94611.09;5032155;28;19942;-76
2023/03/14 09:52:15;;;;;;;;;;;;;;;9.89;82.41;94561.16;5032355;28;19992;-76
2023/03/14 09:55:01;;;;;;;;;;;;;;;10.07;83.34;94578.19;5032200;28;19951;-77
2023/03/14 09:57:27;;;;;;;;;;;;;;;10.38;82.72;94569.59;5031432;28;19956;-77
2023/03/14 09:59:55;;;;;;;;;;;;;;;10.71;80.54;94553.31;5031968;28;20329;-76
2023/03/14 10:02:23;;;;;;;;;;;;;;;11.07;79.12;94532.25;5013862;28;19948;-76
2023/03/14 10:04:50;;;;;;;;;;;;;;;11.24;75.87;94505.69;5031955;28;19950;-77
2023/03/14 10:07:22;;;;;;;;;;;;;;;11.33;77.11;94532.94;5013607;28;19942;-77
2023/03/14 10:09:49;;;;;;;;;;;;;;;11.50;76.28;94529.19;5032119;28;19943;-77
2023/03/14 10:12:16;;;;;;;;;;;;;;;11.42;74.37;94506.91;5031555;28;19953;-78
2023/03/14 10:14:47;;;;;;;;;;;;;;;11.31;74.41;94508.78;5031954;28;19957;-77
2023/03/14 10:17:13;;;;;;;;;;;;;;;11.21;76.51;94526.41;5032061;28;19956;-77
2023/03/14 10:19:53;;;;;;;;;;;;;;;11.10;76.62;94547.44;5031783;28;20323;-76
2023/03/14 10:22:19;;;;;;;;;;;;;;;11.08;77.13;94552.16;5031574;28;19947;-76
2023/03/14 10:24:46;;;;;;;;;;;;;;;11.11;74.88;94532.50;5031342;28;19943;-75
2023/03/14 10:27:20;;;;;;;;;;;;;;;11.15;76.34;94539.56;5031440;28;19961;-76
2023/03/14 10:29:57;;;;;;;;;;;;;;;11.25;76.16;94538.72;5031648;28;20316;-77
2023/03/14 10:32:28;;;;;;;;;;;;;;;11.31;78.23;94558.66;5031441;28;19952;-77
2023/03/14 10:35:03;;;;;;;;;;;;;;;11.27;75.02;94523.50;5031906;28;19942;-77
2023/03/14 10:37:29;;;;;;;;;;;;;;;11.22;75.96;94546.38;5031205;28;20421;-77
2023/03/14 10:39:58;;;;;;;;;;;;;;;11.19;78.57;94571.28;5031245;28;19950;-76
2023/03/14 10:42:29;;;;;;;;;;;;;;;11.20;78.31;94578.09;5031607;28;20390;-76
2023/03/14 10:44:57;;;;;;;;;;;;;;;11.13;78.08;94581.03;4968759;28;1793332;-76
2023/03/14 10:47:24;;;;;;;;;;;;;;;11.08;77.49;94572.38;5032536;28;19953;-76
2023/03/14 10:49:50;;;;;;;;;;;;;;;10.96;78.20;94583.13;5032096;28;19941;-77
2023/03/14 10:52:23;;;;;;;;;;;;;;;10.88;79.79;94604.69;5047692;28;20427;-76
2023/03/14 10:54:59;;;;;;;;;;;;;;;10.77;81.01;94623.03;5032057;28;19943;-76
2023/03/14 10:57:26;;;;;;;;;;;;;;;10.73;83.94;94653.47;5032265;28;19970;-76
2023/03/14 10:59:53;;;;;;;;;;;;;;;10.72;85.03;94674.69;5032132;28;19953;-77
2023/03/14 11:02:30;;;;;;;;;;;;;;;10.64;84.98;94668.13;5032210;28;19950;-76
2023/03/14 11:05:04;;;;;;;;;;;;;;;10.65;86.77;94680.19;5022133;28;19952;-76
2023/03/14 11:07:47;;;;;;;;;;;;;;;10.68;87.07;94684.91;5031833;28;19953;-77
2023/03/14 11:10:20;;;;;;;;;;;;;;;10.74;87.04;94680.44;5032219;28;19943;-77
2023/03/14 11:13:02;;;;;;;;;;;;;;;10.72;86.73;94685.16;5031870;28;19951;-75
2023/03/14 11:15:32;;;;;;;;;;;;;;;10.64;88.52;94704.81;5031227;28;19945;-76
2023/03/14 11:18:17;;;;;;;;;;;;;;;10.46;89.83;94713.19;5032058;28;19965;-76
2023/03/14 11:20:51;;;;;;;;;;;;;;;10.30;89.81;94718.38;5031848;28;20411;-76
2023/03/14 11:23:21;;;;;;;;;;;;;;;10.11;89.26;94717.25;5031914;28;20305;-77
2023/03/14 11:26:00;;;;;;;;;;;;;;;9.96;93.06;94742.34;5031797;28;19961;-77
2023/03/14 11:28:31;;;;;;;;;;;;;;;9.91;93.20;94744.13;5031682;28;20311;-77
2023/03/14 11:31:05;;;;;;;;;;;;;;;9.89;93.15;94738.38;5032246;28;20297;-79
2023/03/14 11:33:31;;;;;;;;;;;;;;;9.90;93.12;94738.13;5017852;28;19952;-77
2023/03/14 11:36:04;;;;;;;;;;;;;;;9.92;93.37;94741.28;5032098;28;19945;-77
2023/03/14 11:38:37;;;;;;;;;;;;;;;9.98;91.76;94722.97;5031567;28;20336;-77
2023/03/14 11:41:04;;;;;;;;;;;;;;;10.02;92.72;94737.13;5031956;28;20325;-77
2023/03/14 11:43:32;;;;;;;;;;;;;;;10.03;93.20;94739.47;5030808;28;19948;-77
2023/03/14 11:46:03;;;;;;;;;;;;;;;10.07;94.00;94761.50;5016916;28;19949;-78
2023/03/14 11:48:36;;;;;;;;;;;;;;;10.03;95.68;94760.44;5031762;28;20423;-77
2023/03/14 11:51:06;;;;;;;;;;;;;;;9.98;95.28;94775.34;5031327;28;19950;-77
2023/03/14 11:53:39;;;;;;;;;;;;;;;9.89;98.52;94785.50;5031413;28;20436;-77
2023/03/14 11:56:11;;;;;;;;;;;;;;;9.80;96.36;94787.81;5031269;28;19945;-77
2023/03/14 11:58:41;;;;;;;;;;;;;;;9.71;98.30;94812.91;5013905;28;19982;-76
2023/03/14 12:01:09;;;;;;;;;;;;;;;9.59;100.00;94830.59;5031402;28;19938;-76
2023/03/14 12:03:42;;;;;;;;;;;;;;;9.53;100.00;94833.19;5031210;28;19951;-77
2023/03/14 12:06:17;;;;;;;;;;;;;;;9.52;100.00;94834.22;5031677;28;19955;-77
2023/03/14 12:08:45;;;;;;;;;;;;;;;9.45;89.84;94775.28;5013444;28;19955;-77
2023/03/14 12:11:11;;;;;;;;;;;;;;;9.39;89.33;94784.16;5031156;28;19945;-77
2023/03/14 12:13:38;;;;;;;;;;;;;;;9.45;89.70;94799.63;5031185;28;20392;-77
2023/03/14 12:16:06;;;;;;;;;;;;;;;9.53;87.95;94790.53;5030913;28;19951;-78
2023/03/14 12:18:34;;;;;;;;;;;;;;;9.60;87.61;94798.97;5030941;28;19961;-77
2023/03/14 12:21:01;;;;;;;;;;;;;;;9.67;87.57;94798.72;5030941;28;19958;-77
2023/03/14 12:23:27;;;;;;;;;;;;;;;9.72;86.15;94794.31;5031188;28;19941;-77
2023/03/14 12:26:07;;;;;;;;;;;;;;;9.79;86.39;94795.94;5013025;28;20318;-77
2023/03/14 12:28:33;;;;;;;;;;;;;;;9.97;83.38;94761.44;5030973;28;20327;-77
2023/03/14 12:31:19;;;;;;;;;;;;;;;10.23;83.81;94766.81;5031286;28;20046;-78
2023/03/14 12:34:01;;;;;;;;;;;;;;;10.44;74.41;94691.72;5030596;28;20021;-78
2023/03/14 12:36:56;;;;;;;;;;;;;;;10.47;67.71;94647.41;5030808;28;20290;-77
2023/03/14 12:39:32;;;;;;;;;;;;;;;10.43;65.58;94648.19;5030334;28;19959;-77
2023/03/14 12:42:04;;;;;;;;;;;;;;;10.22;67.44;94708.38;5030712;28;19936;-77
2023/03/14 12:44:30;;;;;;;;;;;;;;;10.02;65.99;94690.78;5030687;28;19974;-77
2023/03/14 12:47:00;;;;;;;;;;;;;;;9.79;68.86;94749.59;5030878;28;20001;-77
2023/03/14 12:49:30;;;;;;;;;;;;;;;9.57;68.92;94767.25;5030723;28;20453;-77
2023/03/14 12:52:00;;;;;;;;;;;;;;;9.27;66.69;94761.56;5030540;28;19950;-76